Terminal Aerodrome Forecast
Issued by NWS

Home | Current Version | Previous Version | Text Only | Print | Product List | Glossary On
Versions: 1 2 3 4 5 6 7 8 9 10 11 12 13
000
FTUS45 KABQ 111700
TAFROW
TAF
KROW 111739Z 1118/1218 14013G20KT P6SM SKC
     FM112000 15015G25KT P6SM SKC
     FM120200 15011KT P6SM SKC
     FM120800 15010KT P6SM BKN040
     FM121000 16006KT P6SM BKN030
     FM121500 15006KT P6SM FEW040=

USA.gov is the U.S. government's official web portal to all federal, state and local government web resources and services.